Aviation Digital Data Service (ADDS)

Output produced by METARs form (1230 UTC 01 November 2014)
found at http://www.aviationweather.gov/adds/metars/
 
KDEN 011128Z 0112/0218 16005KT P6SM FEW150 SCT220 
     FM011600 15007KT P6SM SCT140 SCT220 
     FM012000 10008KT P6SM SCT130 BKN200 
     FM012300 08008KT P6SM FEW090 SCT120 BKN200 
     FM020400 23010KT P6SM SCT140 SCT200 
     FM021400 22008KT P6SM SCT120 BKN200